Time;durP1;ratioP1;P1;durP2;ratioP2;P2;SDS_P1;SDS_P2;PMS_P1;PMS_P2;Temp;Humidity;BMP_temperature;BMP_pressure;BME280_temperature;BME280_humidity;BME280_pressure;Samples;Min_cycle;Max_cycle;Signal;HPM_P1;HPM_P2
2022/08/13 00:01:13;;;;;;;1.52;1.00;;;;;;;;;;8361935;28;20048;-57
2022/08/13 00:05:14;;;;;;;1.90;0.82;;;;;;;;;;8365096;28;20414;-57
2022/08/13 00:09:15;;;;;;;3.63;0.98;;;;;;;;;;8362333;28;20024;-56
2022/08/13 00:13:18;;;;;;;1.77;1.00;;;;;;;;;;8361513;28;20389;-57
2022/08/13 00:17:19;;;;;;;3.63;1.10;;;;;;;;;;8363347;28;20547;-57
2022/08/13 00:21:21;;;;;;;0.95;0.88;;;;;;;;;;8359747;28;20036;-57
2022/08/13 00:25:21;;;;;;;1.45;1.05;;;;;;;;;;8365197;28;20042;-57
2022/08/13 00:29:22;;;;;;;2.77;1.10;;;;;;;;;;8362474;28;20725;-56
2022/08/13 00:33:23;;;;;;;2.92;1.00;;;;;;;;;;8361296;28;20313;-57
2022/08/13 00:37:25;;;;;;;1.48;0.90;;;;;;;;;;8361311;28;20024;-56
2022/08/13 00:41:38;;;;;;;1.05;1.00;;;;;;;;;;8359943;28;20495;-57
2022/08/13 00:45:38;;;;;;;1.25;0.85;;;;;;;;;;8361263;28;20059;-56
2022/08/13 00:49:39;;;;;;;1.30;1.00;;;;;;;;;;8360635;28;20437;-57
2022/08/13 00:53:40;;;;;;;0.90;0.90;;;;;;;;;;8360629;28;20032;-56
2022/08/13 00:57:41;;;;;;;1.10;1.00;;;;;;;;;;8362850;28;20036;-57
2022/08/13 01:01:43;;;;;;;3.85;0.82;;;;;;;;;;8361185;28;20067;-56
2022/08/13 01:05:43;;;;;;;1.63;1.02;;;;;;;;;;8360583;28;20020;-56
2022/08/13 01:09:44;;;;;;;2.15;0.95;;;;;;;;;;8364130;28;20530;-56
2022/08/13 01:13:45;;;;;;;1.20;1.10;;;;;;;;;;8361503;28;20532;-56
2022/08/13 01:17:46;;;;;;;0.80;0.80;;;;;;;;;;8362484;28;20044;-56
2022/08/13 01:21:50;;;;;;;6.43;1.08;;;;;;;;;;8358917;28;20443;-57
2022/08/13 01:25:50;;;;;;;2.22;1.00;;;;;;;;;;8361174;28;20013;-57
2022/08/13 01:29:50;;;;;;;1.23;1.00;;;;;;;;;;8359824;28;20481;-57
2022/08/13 01:33:56;;;;;;;1.05;0.93;;;;;;;;;;8361567;28;20562;-56
2022/08/13 01:37:57;;;;;;;1.17;1.00;;;;;;;;;;8362052;28;20398;-56
2022/08/13 01:41:57;;;;;;;0.80;0.80;;;;;;;;;;8363421;28;20028;-56
2022/08/13 01:45:59;;;;;;;2.37;1.00;;;;;;;;;;8368762;28;20550;-57
2022/08/13 01:54:20;;;;;;;1.98;1.08;;;;;;;;;;8368903;28;20031;-56
2022/08/13 01:58:22;;;;;;;1.00;0.90;;;;;;;;;;8367005;28;20114;-56
2022/08/13 02:02:24;;;;;;;1.30;1.20;;;;;;;;;;8372289;28;20045;-56
2022/08/13 02:06:26;;;;;;;2.13;1.00;;;;;;;;;;8372348;28;20085;-57
2022/08/13 02:10:26;;;;;;;1.15;0.90;;;;;;;;;;8372978;28;20122;-57
2022/08/13 02:14:27;;;;;;;0.93;0.93;;;;;;;;;;8373868;28;20032;-57
2022/08/13 02:18:27;;;;;;;1.25;0.90;;;;;;;;;;8373876;28;20059;-57
2022/08/13 02:22:28;;;;;;;2.00;1.08;;;;;;;;;;8371216;28;20032;-57
2022/08/13 02:26:28;;;;;;;3.10;1.10;;;;;;;;;;8372407;28;20071;-57
2022/08/13 02:30:29;;;;;;;0.90;0.90;;;;;;;;;;8370384;28;20032;-57
2022/08/13 02:34:30;;;;;;;1.33;1.10;;;;;;;;;;8371932;28;20270;-57
2022/08/13 02:38:30;;;;;;;2.75;1.30;;;;;;;;;;8371307;28;20148;-56
2022/08/13 02:42:32;;;;;;;1.15;0.90;;;;;;;;;;8372606;28;20028;-57
2022/08/13 02:46:32;;;;;;;1.42;0.90;;;;;;;;;;8370492;28;20474;-57
2022/08/13 02:50:41;;;;;;;3.40;0.90;;;;;;;;;;8371210;28;20021;-56
2022/08/13 02:54:43;;;;;;;1.15;1.00;;;;;;;;;;8373006;28;20266;-56
2022/08/13 02:58:45;;;;;;;1.08;1.00;;;;;;;;;;8370932;28;20019;-57
2022/08/13 03:02:45;;;;;;;1.30;1.17;;;;;;;;;;8372452;28;20044;-56
2022/08/13 03:06:46;;;;;;;1.03;0.93;;;;;;;;;;8374365;28;20426;-56
2022/08/13 03:10:46;;;;;;;1.20;1.10;;;;;;;;;;8373724;28;20473;-56
2022/08/13 03:14:48;;;;;;;3.38;1.20;;;;;;;;;;8374393;28;20098;-56
2022/08/13 03:18:48;;;;;;;3.58;1.00;;;;;;;;;;8371847;28;20115;-56
2022/08/13 03:22:51;;;;;;;1.30;1.20;;;;;;;;;;8372080;28;20056;-56
2022/08/13 03:26:51;;;;;;;1.48;1.20;;;;;;;;;;8375815;28;20158;-56
2022/08/13 03:30:51;;;;;;;1.08;1.00;;;;;;;;;;8373474;28;20040;-57
2022/08/13 03:34:51;;;;;;;1.13;1.10;;;;;;;;;;8373493;28;20024;-56
2022/08/13 03:38:51;;;;;;;0.90;0.90;;;;;;;;;;8373275;28;20028;-60
2022/08/13 03:42:52;;;;;;;2.17;1.02;;;;;;;;;;8371882;28;20024;-56
2022/08/13 03:46:53;;;;;;;1.08;1.00;;;;;;;;;;8374179;28;20489;-56
2022/08/13 03:50:55;;;;;;;1.50;1.10;;;;;;;;;;8372668;28;20036;-56
2022/08/13 03:54:55;;;;;;;1.92;1.10;;;;;;;;;;8373765;28;20024;-56
2022/08/13 03:58:55;;;;;;;0.90;0.90;;;;;;;;;;8370770;28;21437;-56
2022/08/13 04:02:56;;;;;;;1.00;1.00;;;;;;;;;;8372364;28;20036;-56
2022/08/13 04:06:57;;;;;;;1.27;1.05;;;;;;;;;;8372249;28;20021;-56
2022/08/13 04:10:57;;;;;;;1.58;1.02;;;;;;;;;;8374121;28;20499;-56
2022/08/13 04:14:58;;;;;;;1.20;1.10;;;;;;;;;;8372792;28;20194;-56
2022/08/13 04:19:00;;;;;;;1.00;1.00;;;;;;;;;;8372058;28;20117;-56
2022/08/13 04:23:01;;;;;;;2.33;1.13;;;;;;;;;;8374397;28;20692;-56
2022/08/13 04:27:02;;;;;;;4.05;1.20;;;;;;;;;;8371655;28;20024;-56
2022/08/13 04:31:02;;;;;;;1.67;1.10;;;;;;;;;;8368247;28;20045;-56
2022/08/13 04:35:02;;;;;;;3.60;1.48;;;;;;;;;;8372703;28;20035;-55
2022/08/13 04:39:04;;;;;;;4.60;1.10;;;;;;;;;;8373070;28;20148;-55
2022/08/13 04:43:05;;;;;;;2.25;1.23;;;;;;;;;;8373000;28;20133;-56
2022/08/13 04:47:05;;;;;;;3.65;1.20;;;;;;;;;;8371789;28;20663;-56
2022/08/13 04:51:06;;;;;;;1.17;1.08;;;;;;;;;;8363653;28;20052;-56
2022/08/13 04:55:10;;;;;;;2.47;1.40;;;;;;;;;;8369419;28;20029;-56
2022/08/13 04:59:11;;;;;;;2.63;1.20;;;;;;;;;;8371017;28;20024;-56
2022/08/13 05:03:11;;;;;;;3.95;1.13;;;;;;;;;;8369790;28;20037;-59
2022/08/13 05:07:11;;;;;;;2.10;1.10;;;;;;;;;;8371541;28;20029;-56
2022/08/13 05:11:12;;;;;;;1.20;1.08;;;;;;;;;;8370684;28;20286;-56
2022/08/13 05:15:13;;;;;;;1.70;1.10;;;;;;;;;;8368341;28;20032;-57
2022/08/13 05:19:13;;;;;;;1.90;1.17;;;;;;;;;;8378335;28;20046;-56
2022/08/13 05:23:16;;;;;;;2.40;1.13;;;;;;;;;;8376298;28;20032;-57
2022/08/13 05:27:17;;;;;;;1.67;1.08;;;;;;;;;;8373402;28;20495;-56
2022/08/13 05:31:17;;;;;;;1.13;1.05;;;;;;;;;;8369633;28;20085;-56
2022/08/13 05:35:17;;;;;;;3.05;1.27;;;;;;;;;;8372764;28;20067;-56
2022/08/13 05:39:18;;;;;;;1.08;1.00;;;;;;;;;;8372850;28;20428;-56
2022/08/13 05:43:19;;;;;;;1.30;1.20;;;;;;;;;;8371547;28;20039;-56
2022/08/13 05:47:19;;;;;;;1.02;0.90;;;;;;;;;;8370686;28;20544;-56
2022/08/13 05:51:24;;;;;;;3.72;1.00;;;;;;;;;;8368728;28;20029;-56
2022/08/13 05:55:24;;;;;;;1.60;1.00;;;;;;;;;;8370379;28;20095;-56
2022/08/13 06:03:43;;;;;;;3.38;1.00;;;;;;;;;;8367064;28;20445;-57
2022/08/13 06:07:44;;;;;;;2.35;1.27;;;;;;;;;;8367686;28;20032;-57
2022/08/13 06:11:44;;;;;;;4.53;1.23;;;;;;;;;;8367400;28;20066;-57
2022/08/13 06:15:54;;;;;;;1.00;1.00;;;;;;;;;;8367804;28;20036;-56
2022/08/13 06:20:00;;;;;;;1.05;1.00;;;;;;;;;;8369362;28;20845;-57
2022/08/13 06:24:01;;;;;;;3.60;0.93;;;;;;;;;;8371952;28;20028;-57
2022/08/13 06:28:03;;;;;;;2.67;1.10;;;;;;;;;;8381844;28;20034;-57
2022/08/13 06:32:03;;;;;;;1.90;1.10;;;;;;;;;;8383575;28;20043;-57
2022/08/13 06:36:08;;;;;;;1.25;0.90;;;;;;;;;;8388196;28;20060;-57
2022/08/13 06:40:09;;;;;;;1.10;1.00;;;;;;;;;;8387021;28;20596;-57
2022/08/13 06:44:11;;;;;;;2.05;1.10;;;;;;;;;;8387772;28;20505;-57
2022/08/13 06:48:12;;;;;;;3.20;1.10;;;;;;;;;;8385575;28;20422;-57
2022/08/13 06:52:12;;;;;;;1.52;1.00;;;;;;;;;;8379111;28;20032;-58
2022/08/13 06:56:16;;;;;;;2.35;1.00;;;;;;;;;;8372640;28;20027;-58
2022/08/13 07:00:18;;;;;;;2.65;0.98;;;;;;;;;;8372735;28;20096;-58
2022/08/13 07:04:19;;;;;;;1.10;1.00;;;;;;;;;;8374775;28;20039;-58
2022/08/13 07:08:20;;;;;;;1.33;0.90;;;;;;;;;;8384789;28;20298;-57
2022/08/13 07:12:20;;;;;;;4.35;1.00;;;;;;;;;;8385477;28;20039;-58
2022/08/13 07:16:22;;;;;;;1.90;0.90;;;;;;;;;;8379978;28;20040;-57
2022/08/13 07:20:23;;;;;;;0.90;0.90;;;;;;;;;;8368624;28;20628;-57
2022/08/13 07:24:25;;;;;;;2.28;0.90;;;;;;;;;;8371740;28;20383;-58
2022/08/13 07:28:28;;;;;;;1.40;1.00;;;;;;;;;;8366974;28;20227;-58
2022/08/13 07:32:28;;;;;;;0.90;0.90;;;;;;;;;;8367652;28;20047;-58
2022/08/13 07:36:30;;;;;;;2.33;0.98;;;;;;;;;;8367092;28;20033;-58
2022/08/13 07:40:33;;;;;;;1.70;1.00;;;;;;;;;;8367911;28;20613;-58
2022/08/13 07:44:33;;;;;;;1.23;1.00;;;;;;;;;;8366265;28;20021;-58
2022/08/13 07:48:34;;;;;;;1.08;0.95;;;;;;;;;;8370871;28;20036;-58
2022/08/13 07:52:34;;;;;;;1.48;1.10;;;;;;;;;;8368108;28;20020;-58
2022/08/13 07:56:35;;;;;;;1.15;1.05;;;;;;;;;;8372698;28;20051;-58
2022/08/13 08:00:36;;;;;;;2.67;1.10;;;;;;;;;;8369190;28;20036;-58
2022/08/13 08:04:37;;;;;;;1.53;0.97;;;;;;;;;;8380667;28;20537;-58
2022/08/13 08:08:42;;;;;;;2.50;0.83;;;;;;;;;;8372651;28;20017;-57
2022/08/13 08:12:42;;;;;;;3.13;1.10;;;;;;;;;;8361247;28;20060;-58
2022/08/13 08:16:45;;;;;;;1.93;1.10;;;;;;;;;;8364402;28;20045;-58
2022/08/13 08:20:45;;;;;;;4.03;1.10;;;;;;;;;;8361509;28;20097;-58
2022/08/13 08:24:50;;;;;;;2.08;0.90;;;;;;;;;;8364134;28;20083;-58
2022/08/13 08:28:51;;;;;;;3.33;0.90;;;;;;;;;;8368303;28;20025;-58
2022/08/13 08:32:53;;;;;;;1.92;0.80;;;;;;;;;;8373367;28;20349;-58
2022/08/13 08:36:55;;;;;;;5.43;1.10;;;;;;;;;;8372903;28;20046;-58
2022/08/13 08:45:18;;;;;;;4.00;1.00;;;;;;;;;;8370931;28;20039;-60
2022/08/13 08:49:21;;;;;;;1.17;0.90;;;;;;;;;;8375354;28;20099;-58
2022/08/13 08:53:22;;;;;;;4.10;1.10;;;;;;;;;;8377817;28;20132;-58
2022/08/13 08:57:22;;;;;;;2.88;0.95;;;;;;;;;;8375884;28;20050;-58
2022/08/13 09:01:25;;;;;;;4.13;0.90;;;;;;;;;;8377881;28;20047;-59
2022/08/13 09:05:25;;;;;;;1.10;0.95;;;;;;;;;;8379162;28;20028;-58
2022/08/13 09:09:26;;;;;;;1.80;1.00;;;;;;;;;;8378603;28;20025;-58
2022/08/13 09:13:26;;;;;;;1.33;1.00;;;;;;;;;;8377003;28;20037;-60
2022/08/13 09:17:27;;;;;;;1.07;1.00;;;;;;;;;;8376567;28;20044;-58
2022/08/13 09:21:27;;;;;;;1.97;1.00;;;;;;;;;;8373295;28;20028;-58
2022/08/13 09:25:27;;;;;;;1.63;1.07;;;;;;;;;;8374347;28;20303;-58
2022/08/13 09:29:27;;;;;;;1.13;1.03;;;;;;;;;;8375979;28;20122;-58
2022/08/13 09:33:28;;;;;;;1.25;1.00;;;;;;;;;;8376319;28;20147;-58
2022/08/13 09:37:30;;;;;;;1.95;1.10;;;;;;;;;;8369181;28;20024;-58
2022/08/13 09:41:38;;;;;;;2.85;1.00;;;;;;;;;;8368260;28;20029;-58
2022/08/13 09:45:39;;;;;;;3.17;1.10;;;;;;;;;;8374890;28;20832;-59
2022/08/13 09:49:39;;;;;;;2.03;0.93;;;;;;;;;;8377548;28;20711;-59
2022/08/13 09:53:40;;;;;;;0.95;0.95;;;;;;;;;;8382027;28;20513;-60
2022/08/13 09:57:47;;;;;;;0.90;0.90;;;;;;;;;;8378360;28;20031;-58
2022/08/13 10:01:50;;;;;;;3.78;1.02;;;;;;;;;;8375710;28;20044;-58
2022/08/13 10:05:50;;;;;;;1.10;0.98;;;;;;;;;;8376267;28;20123;-58
2022/08/13 10:09:51;;;;;;;3.13;1.10;;;;;;;;;;8381358;28;20024;-58
2022/08/13 10:13:53;;;;;;;3.40;1.10;;;;;;;;;;8378954;28;20028;-58
2022/08/13 10:17:55;;;;;;;2.78;1.10;;;;;;;;;;8385528;28;20193;-58
2022/08/13 10:21:55;;;;;;;;;;;;;;;;;;8389108;28;20025;-59
2022/08/13 10:25:56;;;;;;;3.47;1.00;;;;;;;;;;8385087;28;21972;-59
2022/08/13 10:29:56;;;;;;;1.13;0.90;;;;;;;;;;8382604;28;20544;-58
2022/08/13 10:33:59;;;;;;;2.08;0.88;;;;;;;;;;8380448;28;20986;-58
2022/08/13 10:37:59;;;;;;;2.50;1.00;;;;;;;;;;8383562;28;20028;-58
2022/08/13 10:42:02;;;;;;;2.10;0.93;;;;;;;;;;8384144;28;20032;-58
2022/08/13 10:46:05;;;;;;;3.70;1.10;;;;;;;;;;8384181;28;20029;-58
2022/08/13 10:50:05;;;;;;;2.65;1.00;;;;;;;;;;8386695;28;20027;-58
2022/08/13 10:54:07;;;;;;;2.10;0.93;;;;;;;;;;8385877;28;20017;-58
2022/08/13 10:58:10;;;;;;;1.90;0.90;;;;;;;;;;8385509;28;20025;-58
2022/08/13 11:02:10;;;;;;;3.58;1.10;;;;;;;;;;8384890;28;20054;-58
2022/08/13 11:06:11;;;;;;;1.00;1.00;;;;;;;;;;8388246;28;20016;-58
2022/08/13 11:10:12;;;;;;;1.20;1.10;;;;;;;;;;8389801;28;20032;-58
2022/08/13 11:14:15;;;;;;;1.03;0.90;;;;;;;;;;8384426;28;20047;-58
2022/08/13 11:18:15;;;;;;;6.93;1.10;;;;;;;;;;8374694;28;20066;-59
2022/08/13 11:22:16;;;;;;;1.65;0.90;;;;;;;;;;8380319;28;20028;-58
2022/08/13 11:26:16;;;;;;;2.42;1.10;;;;;;;;;;8378198;28;20046;-58
2022/08/13 11:30:16;;;;;;;2.67;0.90;;;;;;;;;;8380238;28;20473;-61
2022/08/13 11:34:17;;;;;;;0.90;0.90;;;;;;;;;;8383177;28;20024;-58
2022/08/13 11:38:18;;;;;;;2.63;0.80;;;;;;;;;;8379439;28;20476;-58
2022/08/13 11:42:19;;;;;;;1.50;1.00;;;;;;;;;;8378549;28;20143;-58
2022/08/13 11:46:20;;;;;;;1.00;0.90;;;;;;;;;;8379171;28;20036;-60
2022/08/13 11:50:20;;;;;;;1.57;1.00;;;;;;;;;;8379561;28;20870;-58
2022/08/13 11:54:21;;;;;;;1.17;0.95;;;;;;;;;;8380784;28;20293;-59
2022/08/13 11:58:21;;;;;;;1.20;1.00;;;;;;;;;;8371759;28;20532;-58
2022/08/13 12:02:22;;;;;;;1.30;1.20;;;;;;;;;;8369532;28;20059;-59
2022/08/13 12:06:22;;;;;;;1.58;1.02;;;;;;;;;;8361135;28;20082;-60
2022/08/13 12:10:22;;;;;;;1.73;1.00;;;;;;;;;;8366210;28;20033;-58
2022/08/13 12:14:23;;;;;;;1.73;1.00;;;;;;;;;;8368852;28;20059;-58
2022/08/13 12:18:23;;;;;;;1.33;1.05;;;;;;;;;;8366943;28;20125;-59
2022/08/13 12:22:23;;;;;;;2.07;1.10;;;;;;;;;;8367209;28;20020;-59
2022/08/13 12:26:23;;;;;;;4.10;1.08;;;;;;;;;;8362930;28;20043;-58
2022/08/13 12:30:24;;;;;;;5.15;1.17;;;;;;;;;;8371794;28;20040;-59
2022/08/13 12:34:26;;;;;;;3.22;1.10;;;;;;;;;;8377138;28;20031;-59
2022/08/13 12:38:27;;;;;;;1.10;1.00;;;;;;;;;;8368544;28;20398;-60
2022/08/13 12:42:27;;;;;;;1.00;1.00;;;;;;;;;;8360454;28;20210;-59
2022/08/13 12:46:27;;;;;;;3.50;1.07;;;;;;;;;;8368464;28;20576;-59
2022/08/13 12:50:28;;;;;;;1.15;0.90;;;;;;;;;;8369289;28;20123;-59
2022/08/13 12:54:28;;;;;;;3.13;1.20;;;;;;;;;;8361374;28;20048;-59
2022/08/13 12:58:29;;;;;;;1.10;1.00;;;;;;;;;;8360461;28;20043;-59
2022/08/13 13:02:33;;;;;;;1.38;1.17;;;;;;;;;;8360633;28;20040;-59
2022/08/13 13:06:33;;;;;;;1.58;1.00;;;;;;;;;;8359119;28;20518;-59
2022/08/13 13:10:34;;;;;;;2.13;1.10;;;;;;;;;;8364803;28;20020;-59
2022/08/13 13:14:37;;;;;;;1.33;1.10;;;;;;;;;;8361165;28;20352;-59
2022/08/13 13:18:37;;;;;;;1.58;1.00;;;;;;;;;;8359203;28;20051;-59
2022/08/13 13:22:37;;;;;;;2.90;1.10;;;;;;;;;;8355206;28;20024;-59
2022/08/13 13:26:37;;;;;;;1.35;1.10;;;;;;;;;;8357816;28;20488;-59
2022/08/13 13:30:38;;;;;;;1.63;1.10;;;;;;;;;;8366203;28;20066;-60
2022/08/13 13:34:43;;;;;;;3.10;1.20;;;;;;;;;;8363663;28;20020;-60
2022/08/13 13:38:44;;;;;;;1.48;1.00;;;;;;;;;;8362533;28;20028;-59
2022/08/13 13:42:44;;;;;;;0.97;0.97;;;;;;;;;;8363340;28;20029;-59
2022/08/13 13:46:44;;;;;;;3.30;1.08;;;;;;;;;;8364657;28;20058;-59
2022/08/13 13:50:45;;;;;;;2.73;1.17;;;;;;;;;;8363855;28;20016;-59
2022/08/13 13:54:46;;;;;;;1.23;1.20;;;;;;;;;;8363856;28;20047;-60
2022/08/13 13:58:47;;;;;;;2.55;1.20;;;;;;;;;;8363423;28;20016;-60
2022/08/13 14:02:49;;;;;;;1.60;1.00;;;;;;;;;;8362717;28;20341;-59
2022/08/13 14:06:49;;;;;;;;;;;;;;;;;;8366194;28;20017;-59
2022/08/13 14:10:52;;;;;;;2.05;0.95;;;;;;;;;;8363929;28;20347;-59
2022/08/13 14:14:52;;;;;;;1.38;1.00;;;;;;;;;;8361827;28;20508;-59
2022/08/13 14:18:53;;;;;;;3.38;1.02;;;;;;;;;;8364557;28;20121;-59
2022/08/13 14:22:53;;;;;;;2.53;1.10;;;;;;;;;;8362534;28;20614;-59
2022/08/13 14:26:53;;;;;;;4.35;1.10;;;;;;;;;;8364188;28;20023;-59
2022/08/13 14:30:53;;;;;;;1.47;1.20;;;;;;;;;;8363160;28;20448;-59
2022/08/13 14:34:56;;;;;;;2.45;1.13;;;;;;;;;;8362251;28;20101;-59
2022/08/13 14:39:00;;;;;;;2.42;1.27;;;;;;;;;;8364176;28;20039;-59
2022/08/13 14:43:02;;;;;;;3.25;1.20;;;;;;;;;;8360632;28;20590;-59
2022/08/13 14:47:02;;;;;;;3.33;1.05;;;;;;;;;;8365163;28;20040;-59
2022/08/13 14:51:03;;;;;;;2.60;1.40;;;;;;;;;;8364805;28;20574;-58
2022/08/13 14:55:04;;;;;;;1.65;1.00;;;;;;;;;;8366209;28;20678;-59
2022/08/13 14:59:04;;;;;;;1.20;1.10;;;;;;;;;;8362029;28;20104;-59
2022/08/13 15:03:07;;;;;;;1.33;1.10;;;;;;;;;;8364965;28;20047;-58
2022/08/13 15:07:08;;;;;;;1.30;1.20;;;;;;;;;;8369407;28;20027;-58
2022/08/13 15:11:08;;;;;;;1.42;1.30;;;;;;;;;;8376053;28;20040;-59
2022/08/13 15:15:09;;;;;;;1.63;1.23;;;;;;;;;;8378368;28;20504;-59
2022/08/13 15:19:10;;;;;;;3.50;1.20;;;;;;;;;;8377128;28;20071;-58
2022/08/13 15:23:11;;;;;;;1.50;1.40;;;;;;;;;;8379519;28;20028;-58
2022/08/13 15:27:30;;;;;;;3.05;1.55;;;;;;;;;;8375333;28;20024;-59
2022/08/13 15:31:30;;;;;;;1.50;1.40;;;;;;;;;;8366219;28;20044;-59
2022/08/13 15:35:36;;;;;;;1.53;1.40;;;;;;;;;;8375695;28;20028;-59
2022/08/13 15:39:38;;;;;;;1.17;1.17;;;;;;;;;;8372229;28;20194;-58
2022/08/13 15:43:39;;;;;;;2.50;1.40;;;;;;;;;;8368933;28;20071;-58
2022/08/13 15:47:40;;;;;;;1.55;1.45;;;;;;;;;;8374867;28;20033;-60
2022/08/13 15:51:40;;;;;;;2.05;1.33;;;;;;;;;;8373036;28;20052;-58
2022/08/13 15:55:42;;;;;;;2.55;1.30;;;;;;;;;;8372564;28;20032;-58
2022/08/13 15:59:42;;;;;;;3.22;1.42;;;;;;;;;;8370517;28;20494;-58
2022/08/13 16:03:44;;;;;;;2.50;1.30;;;;;;;;;;8372719;28;20051;-58
2022/08/13 16:07:45;;;;;;;4.40;1.40;;;;;;;;;;8377480;28;20051;-57
2022/08/13 16:11:45;;;;;;;2.55;1.60;;;;;;;;;;8370099;28;20033;-58
2022/08/13 16:15:45;;;;;;;1.88;1.60;;;;;;;;;;8371446;28;20032;-57
2022/08/13 16:19:46;;;;;;;5.90;1.80;;;;;;;;;;8371186;28;20588;-59
2022/08/13 16:23:46;;;;;;;3.60;1.80;;;;;;;;;;8371292;28;20028;-58
2022/08/13 16:27:50;;;;;;;3.22;2.20;;;;;;;;;;8372054;28;20025;-58
2022/08/13 16:31:50;;;;;;;2.95;2.10;;;;;;;;;;8374522;28;20383;-58
2022/08/13 16:35:51;;;;;;;2.60;2.40;;;;;;;;;;8367717;28;20111;-58
2022/08/13 16:39:51;;;;;;;2.50;2.30;;;;;;;;;;8364514;28;20032;-58
2022/08/13 16:43:55;;;;;;;4.03;2.60;;;;;;;;;;8362743;28;20078;-60
2022/08/13 16:47:56;;;;;;;5.18;2.20;;;;;;;;;;8366421;28;20029;-58
2022/08/13 16:51:56;;;;;;;2.20;1.98;;;;;;;;;;8365240;28;21543;-58
2022/08/13 16:55:57;;;;;;;1.70;1.58;;;;;;;;;;8366508;28;20029;-58
2022/08/13 16:59:58;;;;;;;3.53;1.40;;;;;;;;;;8365635;28;20074;-57
2022/08/13 17:12:35;;;;;;;1.83;1.25;;;;;;;;;;8369936;28;20097;-58
2022/08/13 17:16:36;;;;;;;2.47;1.40;;;;;;;;;;8376617;28;20041;-59
2022/08/13 17:20:36;;;;;;;1.90;1.30;;;;;;;;;;8372994;28;20021;-58
2022/08/13 17:24:36;;;;;;;2.55;1.40;;;;;;;;;;8374584;28;20031;-58
2022/08/13 17:28:37;;;;;;;1.53;1.20;;;;;;;;;;8372536;28;20036;-58
2022/08/13 17:32:37;;;;;;;1.77;1.15;;;;;;;;;;8374852;28;20066;-58
2022/08/13 17:36:58;;;;;;;2.92;1.30;;;;;;;;;;8376023;28;20036;-58
2022/08/13 17:40:59;;;;;;;1.25;1.10;;;;;;;;;;8368740;28;20024;-57
2022/08/13 17:45:00;;;;;;;2.05;1.25;;;;;;;;;;8371659;28;20035;-58
2022/08/13 17:49:01;;;;;;;1.37;1.27;;;;;;;;;;8372355;28;20214;-58
2022/08/13 17:53:03;;;;;;;1.50;1.40;;;;;;;;;;8373805;28;20032;-58
2022/08/13 17:57:04;;;;;;;2.05;1.60;;;;;;;;;;8375351;28;20032;-58
2022/08/13 18:01:07;;;;;;;1.60;1.50;;;;;;;;;;8372323;28;20036;-58
2022/08/13 18:05:08;;;;;;;1.98;1.40;;;;;;;;;;8371202;28;20087;-57
2022/08/13 18:09:10;;;;;;;1.47;1.30;;;;;;;;;;8369854;28;20082;-58
2022/08/13 18:13:10;;;;;;;1.30;1.30;;;;;;;;;;8366782;28;20020;-58
2022/08/13 18:17:10;;;;;;;1.50;1.40;;;;;;;;;;8367445;28;20520;-58
2022/08/13 18:21:10;;;;;;;1.60;1.50;;;;;;;;;;8367405;28;20051;-57
2022/08/13 18:25:12;;;;;;;1.42;1.33;;;;;;;;;;8366580;28;20052;-57
2022/08/13 18:29:12;;;;;;;2.28;1.55;;;;;;;;;;8367213;28;20514;-58
2022/08/13 18:33:14;;;;;;;1.95;1.60;;;;;;;;;;8365973;28;20064;-58
2022/08/13 18:37:15;;;;;;;2.95;1.30;;;;;;;;;;8366469;28;20374;-58
2022/08/13 18:41:15;;;;;;;1.40;1.30;;;;;;;;;;8368441;28;20394;-58
2022/08/13 18:45:16;;;;;;;1.20;1.20;;;;;;;;;;8365622;28;20579;-58
2022/08/13 18:49:17;;;;;;;1.50;1.08;;;;;;;;;;8365819;28;20074;-58
2022/08/13 18:53:18;;;;;;;1.70;1.23;;;;;;;;;;8366543;28;20695;-57
2022/08/13 18:57:18;;;;;;;1.50;1.40;;;;;;;;;;8365060;28;20024;-58
2022/08/13 19:01:20;;;;;;;1.50;1.40;;;;;;;;;;8365261;28;20583;-58
2022/08/13 19:05:23;;;;;;;3.67;1.35;;;;;;;;;;8367305;28;20016;-58
2022/08/13 19:09:24;;;;;;;5.88;1.30;;;;;;;;;;8366286;28;20450;-57
2022/08/13 19:13:24;;;;;;;2.45;1.38;;;;;;;;;;8366259;28;20024;-58
2022/08/13 19:17:24;;;;;;;2.90;1.30;;;;;;;;;;8364761;28;20087;-58
2022/08/13 19:21:24;;;;;;;1.92;1.50;;;;;;;;;;8367917;28;20330;-58
2022/08/13 19:25:27;;;;;;;6.53;1.50;;;;;;;;;;8365934;28;20596;-58
2022/08/13 19:29:28;;;;;;;2.15;1.27;;;;;;;;;;8363914;28;20097;-58
2022/08/13 19:33:29;;;;;;;3.92;2.22;;;;;;;;;;8365722;28;20329;-58
2022/08/13 19:37:31;;;;;;;1.58;1.30;;;;;;;;;;8365323;28;20417;-58
2022/08/13 19:41:33;;;;;;;1.40;1.30;;;;;;;;;;8364838;28;20464;-58
2022/08/13 19:45:34;;;;;;;1.85;1.38;;;;;;;;;;8366767;28;20040;-58
2022/08/13 19:49:37;;;;;;;2.72;1.10;;;;;;;;;;8368293;28;20860;-57
2022/08/13 19:53:37;;;;;;;3.05;1.40;;;;;;;;;;8367409;28;20029;-57
2022/08/13 19:57:39;;;;;;;1.30;1.20;;;;;;;;;;8367287;28;20089;-57
2022/08/13 20:01:40;;;;;;;1.60;1.50;;;;;;;;;;8365360;28;20535;-57
2022/08/13 20:05:40;;;;;;;1.48;1.38;;;;;;;;;;8368624;28;20040;-58
2022/08/13 20:09:41;;;;;;;1.35;1.25;;;;;;;;;;8376603;28;20051;-58
2022/08/13 20:13:41;;;;;;;1.35;1.25;;;;;;;;;;8372585;28;20550;-57
2022/08/13 20:17:42;;;;;;;1.83;1.23;;;;;;;;;;8374100;28;20135;-57
2022/08/13 20:21:44;;;;;;;1.40;1.30;;;;;;;;;;8371399;28;20052;-57
2022/08/13 20:25:45;;;;;;;1.50;1.40;;;;;;;;;;8370278;28;20478;-57
2022/08/13 20:30:06;;;;;;;1.42;1.30;;;;;;;;;;8340285;28;20767;-57
2022/08/13 20:34:06;;;;;;;1.70;1.35;;;;;;;;;;8372341;28;20025;-57
2022/08/13 20:38:07;;;;;;;2.15;1.40;;;;;;;;;;8373505;28;20016;-57
2022/08/13 20:42:07;;;;;;;2.60;1.95;;;;;;;;;;8372809;28;20466;-57
2022/08/13 20:46:07;;;;;;;1.48;1.20;;;;;;;;;;8370747;28;20055;-57
2022/08/13 20:50:09;;;;;;;1.10;1.10;;;;;;;;;;8372198;28;20020;-57
2022/08/13 20:54:09;;;;;;;1.10;1.10;;;;;;;;;;8374129;28;20032;-56
2022/08/13 20:58:09;;;;;;;3.58;1.25;;;;;;;;;;8370830;28;20580;-58
2022/08/13 21:02:10;;;;;;;1.23;1.20;;;;;;;;;;8371070;28;20211;-57
2022/08/13 21:06:10;;;;;;;1.20;1.20;;;;;;;;;;8372700;28;20135;-57
2022/08/13 21:10:10;;;;;;;1.42;1.20;;;;;;;;;;8373149;28;20021;-58
2022/08/13 21:14:11;;;;;;;4.25;1.50;;;;;;;;;;8370882;28;20048;-57
2022/08/13 21:18:11;;;;;;;1.20;1.15;;;;;;;;;;8368096;28;20136;-57
2022/08/13 21:22:11;;;;;;;2.58;1.40;;;;;;;;;;8372215;28;20029;-57
2022/08/13 21:26:11;;;;;;;1.88;1.30;;;;;;;;;;8376425;28;20016;-57
2022/08/13 21:30:12;;;;;;;2.72;1.30;;;;;;;;;;8370210;28;20265;-57
2022/08/13 21:34:12;;;;;;;1.58;1.30;;;;;;;;;;8375630;28;20039;-57
2022/08/13 21:38:12;;;;;;;1.98;1.13;;;;;;;;;;8374739;28;20145;-57
2022/08/13 21:42:12;;;;;;;1.55;1.30;;;;;;;;;;8373105;28;20461;-58
2022/08/13 21:46:14;;;;;;;1.60;1.50;;;;;;;;;;8372596;28;20063;-57
2022/08/13 21:50:15;;;;;;;1.17;1.17;;;;;;;;;;8371845;28;20549;-57
2022/08/13 21:54:19;;;;;;;1.55;1.20;;;;;;;;;;8376622;28;20031;-57
2022/08/13 21:58:19;;;;;;;;;;;;;;;;;;8370413;28;20025;-57
2022/08/13 22:02:20;;;;;;;2.45;1.10;;;;;;;;;;8379202;28;19937;-57
2022/08/13 22:06:21;;;;;;;5.65;1.23;;;;;;;;;;8382829;28;20051;-57
2022/08/13 22:10:22;;;;;;;1.42;1.20;;;;;;;;;;8383234;28;20024;-57
2022/08/13 22:14:22;;;;;;;2.00;1.10;;;;;;;;;;8378276;28;20208;-57
2022/08/13 22:18:23;;;;;;;2.10;1.40;;;;;;;;;;8379395;28;20071;-57
2022/08/13 22:22:24;;;;;;;1.23;1.13;;;;;;;;;;8373475;28;20697;-57
2022/08/13 22:26:24;;;;;;;1.25;1.17;;;;;;;;;;8375703;28;20112;-57
2022/08/13 22:34:44;;;;;;;3.25;1.20;;;;;;;;;;8369324;28;20085;-57
2022/08/13 22:38:45;;;;;;;1.40;1.30;;;;;;;;;;8372705;28;20446;-57
2022/08/13 22:42:45;;;;;;;1.50;1.20;;;;;;;;;;8372296;28;20469;-57
2022/08/13 22:46:45;;;;;;;1.75;1.33;;;;;;;;;;8376923;28;20676;-57
2022/08/13 22:50:46;;;;;;;2.03;1.25;;;;;;;;;;8372883;28;20603;-57
2022/08/13 22:54:46;;;;;;;1.38;1.27;;;;;;;;;;8373639;28;20063;-57
2022/08/13 22:58:46;;;;;;;1.50;1.40;;;;;;;;;;8376436;28;20540;-57
2022/08/13 23:02:46;;;;;;;1.40;1.30;;;;;;;;;;8371981;28;20097;-57
2022/08/13 23:06:47;;;;;;;3.83;1.40;;;;;;;;;;8370345;28;20020;-57
2022/08/13 23:10:47;;;;;;;2.08;1.40;;;;;;;;;;8368256;28;20396;-57
2022/08/13 23:14:48;;;;;;;1.50;1.20;;;;;;;;;;8372086;28;20080;-57
2022/08/13 23:18:48;;;;;;;1.42;1.33;;;;;;;;;;8372790;28;20527;-57
2022/08/13 23:22:50;;;;;;;1.85;1.40;;;;;;;;;;8371628;28;20024;-57
2022/08/13 23:26:51;;;;;;;1.27;1.23;;;;;;;;;;8376036;28;20036;-57
2022/08/13 23:30:51;;;;;;;1.98;1.50;;;;;;;;;;8375067;28;20028;-57
2022/08/13 23:34:53;;;;;;;1.65;1.42;;;;;;;;;;8373037;28;20077;-57
2022/08/13 23:38:53;;;;;;;1.98;1.50;;;;;;;;;;8371943;28;20032;-57
2022/08/13 23:42:53;;;;;;;1.92;1.70;;;;;;;;;;8373439;28;20035;-57
2022/08/13 23:46:54;;;;;;;1.83;1.55;;;;;;;;;;8375813;28;20042;-57
2022/08/13 23:50:54;;;;;;;2.55;1.70;;;;;;;;;;8374090;28;20044;-57
2022/08/13 23:54:54;;;;;;;4.10;1.80;;;;;;;;;;8373237;28;20561;-57
2022/08/13 23:58:54;;;;;;;1.95;1.73;;;;;;;;;;8375249;28;20751;-56
